Time;durP1;ratioP1;P1;durP2;ratioP2;P2;SDS_P1;SDS_P2;PMS_P1;PMS_P2;Temp;Humidity;BMP_temperature;BMP_pressure;BME280_temperature;BME280_humidity;BME280_pressure;Samples;Min_cycle;Max_cycle;Signal;HPM_P1;HPM_P2
2023/01/23 00:00:53;;;;;;;2.85;2.65;;;22.90;35.30;;;;;;5056217;28;20044;-51
2023/01/23 00:03:20;;;;;;;6.75;3.63;;;22.90;35.40;;;;;;5056713;28;20196;-53
2023/01/23 00:05:57;;;;;;;5.10;4.60;;;23.00;35.30;;;;;;5060236;28;20157;-48
2023/01/23 00:08:28;;;;;;;7.22;4.05;;;23.10;35.10;;;;;;5060483;28;20069;-54
2023/01/23 00:10:55;;;;;;;6.57;4.28;;;23.20;34.80;;;;;;5052265;28;20045;-52
2023/01/23 00:13:24;;;;;;;8.45;4.68;;;23.20;34.40;;;;;;5045072;28;20132;-53
2023/01/23 00:15:54;;;;;;;2.35;1.75;;;23.20;34.10;;;;;;5052604;28;20119;-52
2023/01/23 00:18:22;;;;;;;4.65;1.52;;;23.10;34.90;;;;;;5053944;28;20048;-52
2023/01/23 00:20:49;;;;;;;2.53;2.33;;;23.00;35.00;;;;;;5063785;28;20469;-49
2023/01/23 00:23:19;;;;;;;3.53;2.60;;;23.00;35.20;;;;;;5064653;28;20457;-50
2023/01/23 00:25:50;;;;;;;3.95;2.22;;;22.90;35.30;;;;;;5062582;28;20098;-49
2023/01/23 00:28:17;;;;;;;4.85;2.47;;;22.80;35.40;;;;;;5062971;28;20610;-50
2023/01/23 00:30:45;;;;;;;3.05;2.25;;;22.70;35.50;;;;;;5063375;28;20055;-49
2023/01/23 00:33:13;;;;;;;3.08;2.30;;;22.60;35.60;;;;;;5064715;28;20098;-49
2023/01/23 00:35:40;;;;;;;3.88;2.25;;;22.50;35.60;;;;;;5064755;28;20048;-50
2023/01/23 00:38:08;;;;;;;2.30;2.20;;;22.50;35.90;;;;;;5064115;28;20888;-50
2023/01/23 00:40:35;;;;;;;8.65;3.00;;;22.40;35.90;;;;;;5064224;28;20513;-50
2023/01/23 00:43:04;;;;;;;2.58;1.85;;;22.30;36.00;;;;;;5054948;28;20041;-47
2023/01/23 00:45:31;;;;;;;2.80;2.55;;;22.20;36.10;;;;;;5052667;28;20112;-48
2023/01/23 00:47:58;;;;;;;2.80;2.60;;;22.20;36.10;;;;;;5063936;28;20048;-47
2023/01/23 00:50:25;;;;;;;3.78;2.97;;;22.10;36.20;;;;;;5057753;28;20033;-46
2023/01/23 00:52:53;;;;;;;5.95;3.28;;;22.00;36.30;;;;;;5044410;28;20407;-49
2023/01/23 00:55:20;;;;;;;3.40;3.10;;;22.00;36.50;;;;;;5061231;28;20534;-53
2023/01/23 00:57:47;;;;;;;2.05;1.95;;;21.90;36.50;;;;;;5063015;28;20552;-48
2023/01/23 01:00:16;;;;;;;2.40;2.25;;;21.80;36.70;;;;;;5050858;28;20037;-49
2023/01/23 01:02:43;;;;;;;3.97;2.33;;;21.80;36.90;;;;;;5042807;28;20048;-50
2023/01/23 01:05:10;;;;;;;3.50;2.65;;;21.70;37.00;;;;;;5044100;28;20052;-50
2023/01/23 01:07:38;;;;;;;4.63;2.33;;;21.70;37.10;;;;;;5046745;28;20180;-52
2023/01/23 01:10:06;;;;;;;3.35;3.15;;;21.60;37.00;;;;;;5046972;28;20110;-49
2023/01/23 01:12:34;;;;;;;3.85;2.60;;;21.60;37.10;;;;;;5046443;28;20056;-48
2023/01/23 01:15:10;;;;;;;2.57;2.40;;;21.50;37.10;;;;;;5051907;28;20077;-47
2023/01/23 01:17:41;;;;;;;3.00;2.63;;;21.50;37.20;;;;;;5068253;28;20387;-50
2023/01/23 01:20:09;;;;;;;4.38;3.15;;;21.40;37.20;;;;;;5066968;28;20143;-50
2023/01/23 01:22:36;;;;;;;2.60;2.35;;;21.40;37.30;;;;;;5068143;28;20051;-54
2023/01/23 01:25:06;;;;;;;3.38;3.10;;;21.30;37.40;;;;;;5066579;28;20074;-50
2023/01/23 01:27:34;;;;;;;4.15;3.75;;;21.30;37.60;;;;;;5066317;28;20515;-50
2023/01/23 01:30:07;;;;;;;4.15;3.30;;;21.20;37.70;;;;;;5052117;28;20048;-49
2023/01/23 01:32:36;;;;;;;3.00;2.80;;;21.20;37.90;;;;;;5063332;28;20049;-48
2023/01/23 01:35:10;;;;;;;3.70;2.97;;;21.10;37.90;;;;;;5047861;28;20094;-51
2023/01/23 01:37:40;;;;;;;3.45;3.17;;;21.10;38.00;;;;;;5048041;28;20509;-50
2023/01/23 01:40:14;;;;;;;3.67;3.30;;;21.00;38.10;;;;;;5046865;28;20181;-48
2023/01/23 01:42:42;;;;;;;3.90;3.58;;;21.00;38.30;;;;;;5063032;28;20151;-48
2023/01/23 01:45:45;;;;;;;2.85;2.33;;;21.00;38.40;;;;;;5051815;28;20374;-53
2023/01/23 01:48:19;;;;;;;7.20;2.90;;;20.90;38.50;;;;;;5046148;28;20191;-48
2023/01/23 01:50:51;;;;;;;2.95;2.67;;;20.90;38.70;;;;;;5046286;28;20044;-50
2023/01/23 01:53:20;;;;;;;4.78;3.30;;;20.80;38.90;;;;;;5047626;28;20483;-51
2023/01/23 01:55:49;;;;;;;3.85;3.30;;;20.80;39.00;;;;;;5067570;28;20066;-47
2023/01/23 01:58:17;;;;;;;3.85;3.38;;;20.80;39.80;;;;;;5066054;28;20130;-48
2023/01/23 02:00:46;;;;;;;3.03;2.83;;;20.70;39.20;;;;;;5049459;28;20060;-47
2023/01/23 02:03:15;;;;;;;2.42;2.33;;;20.70;39.30;;;;;;5066052;28;20068;-52
2023/01/23 02:05:45;;;;;;;8.40;3.05;;;20.60;39.40;;;;;;5066159;28;20504;-49
2023/01/23 02:08:18;;;;;;;3.75;3.45;;;20.60;39.40;;;;;;5067819;28;20100;-51
2023/01/23 02:10:47;;;;;;;3.72;2.92;;;20.60;39.50;;;;;;5066563;28;20044;-49
2023/01/23 02:13:21;;;;;;;4.95;3.70;;;20.50;39.40;;;;;;5065773;28;20049;-50
2023/01/23 02:15:52;;;;;;;4.05;3.70;;;20.50;39.50;;;;;;5057084;28;20045;-48
2023/01/23 02:18:20;;;;;;;3.92;3.15;;;20.40;39.40;;;;;;5066712;28;20662;-49
2023/01/23 02:20:48;;;;;;;3.65;3.35;;;20.40;39.50;;;;;;5067647;28;20041;-46
2023/01/23 02:23:23;;;;;;;3.95;3.28;;;20.40;39.50;;;;;;5066032;28;20048;-48
2023/01/23 02:25:58;;;;;;;5.63;3.23;;;20.40;39.60;;;;;;5067821;28;20048;-48
2023/01/23 02:28:37;;;;;;;2.97;2.78;;;20.40;39.70;;;;;;5064300;28;20117;-48
2023/01/23 02:31:05;;;;;;;3.63;2.72;;;20.30;39.70;;;;;;5047307;28;20056;-46
2023/01/23 02:33:58;;;;;;;3.10;2.92;;;20.30;39.70;;;;;;5045808;28;20052;-47
2023/01/23 02:36:32;;;;;;;2.75;2.55;;;20.30;39.60;;;;;;5045722;28;20065;-47
2023/01/23 02:39:08;;;;;;;3.80;2.63;;;20.20;39.70;;;;;;5046077;28;20060;-52
2023/01/23 02:41:40;;;;;;;3.35;2.97;;;20.20;39.80;;;;;;5045877;28;20044;-50
2023/01/23 02:44:14;;;;;;;2.42;2.22;;;20.20;39.80;;;;;;5045636;28;20118;-49
2023/01/23 02:46:44;;;;;;;3.40;3.05;;;20.10;39.80;;;;;;5062047;28;20044;-50
2023/01/23 02:49:11;;;;;;;2.60;2.40;;;20.10;39.80;;;;;;5045270;28;20704;-48
2023/01/23 02:51:38;;;;;;;3.13;2.92;;;20.10;39.80;;;;;;5045413;28;20055;-49
2023/01/23 02:54:08;;;;;;;3.30;3.00;;;20.10;40.00;;;;;;5053285;28;20128;-53
2023/01/23 02:56:37;;;;;;;5.20;3.63;;;20.10;40.00;;;;;;5061936;28;20507;-49
2023/01/23 03:01:57;;;;;;;3.60;3.20;;;20.00;39.90;;;;;;5045262;28;20501;-48
2023/01/23 03:04:26;;;;;;;3.83;3.20;;;20.00;40.00;;;;;;5064288;28;20047;-49
2023/01/23 03:08:09;;;;;;;3.15;2.85;;;19.90;40.00;;;;;;5079056;28;20055;-50
2023/01/23 03:11:04;;;;;;;3.30;2.90;;;19.90;39.90;;;;;;5066462;28;20047;-49
2023/01/23 03:13:33;;;;;;;5.22;3.42;;;19.80;40.00;;;;;;5066368;28;20044;-51
2023/01/23 03:16:01;;;;;;;2.83;2.58;;;19.80;40.00;;;;;;5066442;28;20155;-48
2023/01/23 03:18:29;;;;;;;3.45;3.15;;;19.80;40.00;;;;;;5064709;28;20102;-47
2023/01/23 03:21:01;;;;;;;3.25;2.75;;;19.80;39.90;;;;;;5065131;28;20049;-50
2023/01/23 03:23:28;;;;;;;2.65;2.45;;;19.80;39.80;;;;;;5066486;28;20044;-50
2023/01/23 03:25:57;;;;;;;3.47;3.17;;;19.70;39.80;;;;;;5066428;28;20051;-46
2023/01/23 03:31:15;;;;;;;4.20;3.38;;;19.70;39.80;;;;;;5043642;28;20120;-47
2023/01/23 03:33:43;;;;;;;3.20;2.97;;;19.70;39.80;;;;;;5061549;28;20072;-47
2023/01/23 03:36:13;;;;;;;4.10;3.70;;;19.70;39.80;;;;;;5044877;28;20040;-47
2023/01/23 03:41:23;;;;;;;3.10;2.90;;;19.60;39.70;;;;;;5047212;28;20036;-48
2023/01/23 03:41:29;;;;;;;6.00;3.33;;;19.60;39.80;;;;;;5044703;28;20045;-48
2023/01/23 03:44:01;;;;;;;3.70;3.38;;;19.60;39.80;;;;;;5044370;28;20041;-48
2023/01/23 03:46:30;;;;;;;3.42;2.80;;;19.50;39.90;;;;;;5060176;28;20102;-47
2023/01/23 03:48:57;;;;;;;2.95;2.65;;;19.50;39.90;;;;;;5065842;28;20040;-51
2023/01/23 03:51:24;;;;;;;3.45;2.70;;;19.50;40.00;;;;;;5065661;28;20071;-48
2023/01/23 03:53:51;;;;;;;3.35;3.05;;;19.50;40.00;;;;;;5079932;28;20116;-47
2023/01/23 03:56:19;;;;;;;4.57;3.80;;;19.50;40.10;;;;;;5044209;28;20123;-50
2023/01/23 03:58:46;;;;;;;4.18;3.05;;;19.50;40.20;;;;;;5044281;28;20033;-48
2023/01/23 04:01:13;;;;;;;3.30;3.10;;;19.40;40.10;;;;;;5043777;28;20045;-50
2023/01/23 04:03:44;;;;;;;2.78;2.58;;;19.40;40.10;;;;;;5044219;28;20794;-49
2023/01/23 04:06:11;;;;;;;2.33;2.22;;;19.40;40.10;;;;;;5044429;28;20760;-47
2023/01/23 04:08:39;;;;;;;4.43;3.60;;;19.40;40.10;;;;;;5044406;28;20063;-49
2023/01/23 04:11:08;;;;;;;2.88;2.67;;;19.40;40.10;;;;;;5045862;28;20073;-47
2023/01/23 04:13:35;;;;;;;3.33;3.03;;;19.40;40.20;;;;;;5051042;28;20501;-49
2023/01/23 04:16:04;;;;;;;4.95;2.85;;;19.30;40.20;;;;;;5063832;28;20483;-48
2023/01/23 04:18:33;;;;;;;5.03;3.15;;;19.40;40.30;;;;;;5064192;28;20139;-49
2023/01/23 04:21:02;;;;;;;8.25;3.00;;;19.30;40.20;;;;;;5065660;28;20056;-47
2023/01/23 04:23:30;;;;;;;5.28;2.95;;;19.30;40.20;;;;;;5064252;28;20148;-49
2023/01/23 04:25:57;;;;;;;2.97;2.65;;;19.30;40.20;;;;;;5064234;28;20106;-47
2023/01/23 04:28:24;;;;;;;3.25;2.95;;;19.30;40.20;;;;;;5064460;28;20127;-49
2023/01/23 04:30:52;;;;;;;2.97;2.35;;;19.30;40.20;;;;;;5043956;28;20762;-49
2023/01/23 04:33:26;;;;;;;3.08;2.88;;;19.30;40.20;;;;;;5044163;28;20118;-49
2023/01/23 04:35:55;;;;;;;3.33;3.05;;;19.20;40.10;;;;;;5044011;28;20083;-48
2023/01/23 04:38:26;;;;;;;4.57;3.72;;;19.20;40.10;;;;;;5065901;28;20044;-48
2023/01/23 04:40:53;;;;;;;3.90;2.63;;;19.20;40.10;;;;;;5063578;28;20045;-46
2023/01/23 04:43:21;;;;;;;2.47;2.28;;;19.20;40.10;;;;;;5063225;28;20139;-46
2023/01/23 04:45:52;;;;;;;3.25;2.95;;;19.20;40.10;;;;;;5063065;28;20044;-49
2023/01/23 04:48:37;;;;;;;2.78;2.53;;;19.10;40.00;;;;;;5048106;28;20049;-48
2023/01/23 04:51:04;;;;;;;3.75;3.35;;;19.10;40.70;;;;;;5043664;28;20116;-51
2023/01/23 04:53:33;;;;;;;3.05;2.85;;;19.10;40.20;;;;;;5046486;28;20425;-48
2023/01/23 04:56:03;;;;;;;2.63;2.47;;;19.10;40.10;;;;;;5062077;28;20068;-49
2023/01/23 04:58:30;;;;;;;4.00;2.30;;;19.10;40.20;;;;;;5044074;28;20953;-50
2023/01/23 05:01:03;;;;;;;3.17;2.00;;;19.10;40.20;;;;;;5043154;28;20082;-46
2023/01/23 05:03:33;;;;;;;3.33;3.03;;;19.10;40.20;;;;;;5044890;28;20041;-48
2023/01/23 05:06:01;;;;;;;3.22;2.92;;;19.10;40.30;;;;;;5043577;28;20765;-47
2023/01/23 05:08:28;;;;;;;6.38;3.67;;;19.00;40.20;;;;;;5043321;28;20179;-49
2023/01/23 05:11:09;;;;;;;3.85;2.50;;;19.00;40.30;;;;;;5043550;28;20720;-48
2023/01/23 05:13:36;;;;;;;2.80;2.55;;;19.00;40.30;;;;;;5042882;28;20049;-48
2023/01/23 05:16:04;;;;;;;2.85;2.63;;;19.00;40.30;;;;;;5055731;28;20993;-47
2023/01/23 05:18:42;;;;;;;2.53;2.33;;;19.00;40.40;;;;;;5063169;28;20044;-48
2023/01/23 05:21:09;;;;;;;2.65;2.45;;;19.00;40.40;;;;;;5063241;28;20638;-48
2023/01/23 05:23:36;;;;;;;5.88;3.22;;;19.00;40.30;;;;;;5064729;28;20424;-50
2023/01/23 05:26:03;;;;;;;3.22;2.20;;;19.00;40.30;;;;;;5063155;28;20048;-48
2023/01/23 05:28:32;;;;;;;4.10;2.47;;;19.00;40.30;;;;;;5060367;28;20080;-48
2023/01/23 05:31:00;;;;;;;4.65;2.83;;;19.00;40.30;;;;;;5047139;28;20060;-50
2023/01/23 05:33:39;;;;;;;3.58;2.92;;;19.00;40.30;;;;;;5043112;28;20056;-47
2023/01/23 05:36:08;;;;;;;3.00;2.80;;;18.90;40.20;;;;;;5043095;28;20140;-47
2023/01/23 05:38:35;;;;;;;3.72;2.95;;;18.90;40.20;;;;;;5043328;28;20055;-48
2023/01/23 05:41:03;;;;;;;3.25;2.88;;;18.90;40.20;;;;;;5043225;28;20439;-48
2023/01/23 05:43:50;;;;;;;3.50;3.20;;;18.90;40.20;;;;;;5044505;28;20131;-47
2023/01/23 05:46:28;;;;;;;5.93;4.00;;;18.90;40.20;;;;;;5059041;28;20593;-51
2023/01/23 05:48:56;;;;;;;2.50;2.40;;;18.80;40.10;;;;;;5062938;28;20060;-46
2023/01/23 05:51:30;;;;;;;3.40;2.90;;;18.90;40.10;;;;;;5064132;28;20040;-50
2023/01/23 05:53:57;;;;;;;4.22;2.72;;;18.80;40.00;;;;;;5064574;28;20056;-47
2023/01/23 05:56:25;;;;;;;3.25;3.00;;;18.80;40.00;;;;;;5066231;28;20049;-51
2023/01/23 05:59:12;;;;;;;9.82;2.88;;;18.80;40.00;;;;;;5067963;28;20051;-46
2023/01/23 06:01:44;;;;;;;4.00;3.70;;;18.80;40.00;;;;;;5065888;28;20048;-50
2023/01/23 06:04:35;;;;;;;2.97;2.65;;;18.80;39.90;;;;;;5024280;28;20056;-52
2023/01/23 06:07:20;;;;;;;2.90;2.67;;;18.80;40.00;;;;;;5007898;28;20108;-47
2023/01/23 06:09:50;;;;;;;3.53;3.15;;;18.80;39.90;;;;;;5008525;28;20056;-47
2023/01/23 06:12:17;;;;;;;3.15;2.83;;;18.80;39.90;;;;;;5008246;28;20560;-47
2023/01/23 06:14:47;;;;;;;8.55;2.33;;;18.80;39.90;;;;;;5007841;28;20053;-47
2023/01/23 06:17:14;;;;;;;5.13;3.85;;;18.80;40.00;;;;;;5024329;28;20212;-48
2023/01/23 06:19:42;;;;;;;3.75;3.45;;;18.80;40.10;;;;;;5024327;28;20792;-50
2023/01/23 06:22:10;;;;;;;4.32;3.83;;;18.80;40.10;;;;;;5024686;28;20053;-47
2023/01/23 06:24:55;;;;;;;5.30;3.72;;;18.80;40.10;;;;;;5024424;28;20393;-49
2023/01/23 06:27:22;;;;;;;7.35;4.03;;;18.70;40.00;;;;;;5024249;28;20045;-49
2023/01/23 06:29:50;;;;;;;3.30;3.00;;;18.70;39.90;;;;;;5024047;28;20121;-50
2023/01/23 06:32:17;;;;;;;3.03;2.65;;;18.70;39.90;;;;;;5024253;28;20128;-45
2023/01/23 06:34:45;;;;;;;3.85;2.58;;;18.70;39.90;;;;;;5007525;28;20054;-47
2023/01/23 06:37:12;;;;;;;3.63;3.33;;;18.70;39.80;;;;;;5007722;28;20049;-47
2023/01/23 06:39:42;;;;;;;3.38;2.97;;;18.70;39.80;;;;;;5007495;28;20057;-48
2023/01/23 06:42:10;;;;;;;6.47;3.13;;;18.70;39.70;;;;;;5045423;28;20122;-46
2023/01/23 06:44:43;;;;;;;3.47;3.17;;;18.70;39.60;;;;;;5065248;28;20048;-48
2023/01/23 06:47:13;;;;;;;3.55;3.00;;;18.70;39.60;;;;;;5065131;28;20098;-50
2023/01/23 06:49:42;;;;;;;3.92;2.78;;;18.70;39.60;;;;;;5064936;28;20061;-47
2023/01/23 06:52:09;;;;;;;5.43;3.63;;;18.70;39.60;;;;;;5051997;28;20470;-51
2023/01/23 06:54:36;;;;;;;5.22;3.47;;;18.60;39.50;;;;;;5057825;28;20079;-52
2023/01/23 06:57:04;;;;;;;3.85;3.55;;;18.60;39.40;;;;;;5065471;28;20513;-53
2023/01/23 06:59:32;;;;;;;3.75;3.42;;;18.60;39.40;;;;;;5065264;28;20045;-50
2023/01/23 07:02:00;;;;;;;8.05;4.15;;;18.60;39.40;;;;;;5063647;28;20036;-52
2023/01/23 07:04:39;;;;;;;6.63;4.28;;;18.60;38.90;;;;;;5061536;28;20054;-50
2023/01/23 07:07:07;;;;;;;6.65;4.63;;;18.60;38.60;;;;;;5064799;28;20041;-60
2023/01/23 07:09:34;;;;;;;16.02;4.25;;;18.70;38.70;;;;;;5065703;28;20135;-50
2023/01/23 07:12:09;;;;;;;3.53;3.23;;;18.70;39.10;;;;;;5065064;28;20048;-48
2023/01/23 07:14:36;;;;;;;4.55;3.95;;;18.80;39.40;;;;;;5050667;28;20876;-48
2023/01/23 07:17:04;;;;;;;4.85;3.80;;;18.90;39.50;;;;;;5048748;28;20049;-46
2023/01/23 07:19:32;;;;;;;4.05;2.70;;;19.10;39.40;;;;;;5056301;28;20048;-52
2023/01/23 07:22:02;;;;;;;2.92;2.20;;;19.20;39.50;;;;;;5064051;28;20040;-54
2023/01/23 07:24:31;;;;;;;3.72;1.73;;;19.40;39.60;;;;;;5065570;28;20051;-46
2023/01/23 07:26:58;;;;;;;2.83;2.55;;;19.60;39.60;;;;;;5065128;28;20082;-50
2023/01/23 07:29:25;;;;;;;2.20;1.98;;;19.80;39.50;;;;;;5065363;28;20060;-50
2023/01/23 07:31:53;;;;;;;3.20;2.38;;;19.90;39.30;;;;;;5048734;28;20078;-48
2023/01/23 07:34:20;;;;;;;2.95;2.55;;;20.00;39.10;;;;;;5047598;28;20037;-54
2023/01/23 07:36:47;;;;;;;13.35;4.63;;;20.30;39.00;;;;;;5059293;28;20076;-46
2023/01/23 07:39:16;;;;;;;16.92;2.25;;;20.40;38.80;;;;;;5065447;28;20141;-49
2023/01/23 07:41:43;;;;;;;2.08;1.95;;;20.60;38.70;;;;;;5065515;28;20048;-50
2023/01/23 07:44:16;;;;;;;4.88;2.47;;;20.70;38.50;;;;;;5063846;28;20040;-50
2023/01/23 07:46:43;;;;;;;2.55;2.35;;;20.90;38.30;;;;;;5065359;28;20094;-50
2023/01/23 07:49:10;;;;;;;2.13;1.75;;;21.00;38.10;;;;;;5064969;28;20082;-47
2023/01/23 07:51:37;;;;;;;1.80;1.70;;;21.10;37.90;;;;;;5065662;28;20528;-52
2023/01/23 07:54:04;;;;;;;3.90;1.67;;;21.20;37.70;;;;;;5065250;28;20140;-53
2023/01/23 07:56:33;;;;;;;3.67;1.88;;;21.40;37.60;;;;;;5065750;28;20052;-56
2023/01/23 07:59:01;;;;;;;3.10;2.90;;;21.50;37.30;;;;;;5065594;28;20048;-48
2023/01/23 08:01:28;;;;;;;2.10;1.90;;;21.60;37.10;;;;;;5065907;28;20048;-48
2023/01/23 08:03:55;;;;;;;3.92;2.78;;;21.70;36.90;;;;;;5045977;28;20047;-53
2023/01/23 08:06:22;;;;;;;1.83;1.67;;;21.90;36.80;;;;;;5045263;28;20041;-45
2023/01/23 08:08:49;;;;;;;3.10;2.22;;;22.00;36.70;;;;;;5045581;28;20444;-54
2023/01/23 08:11:17;;;;;;;3.25;1.90;;;22.10;36.50;;;;;;5062005;28;20115;-53
2023/01/23 08:13:49;;;;;;;6.03;2.65;;;22.20;36.40;;;;;;5065100;28;20076;-48
2023/01/23 08:16:16;;;;;;;4.88;2.28;;;22.40;36.30;;;;;;5063121;28;20107;-51
2023/01/23 08:18:44;;;;;;;2.70;2.38;;;22.40;36.10;;;;;;5065260;28;20127;-57
2023/01/23 08:21:11;;;;;;;3.65;3.28;;;22.50;35.90;;;;;;5064739;28;20062;-53
2023/01/23 08:23:39;;;;;;;3.70;3.22;;;22.60;35.70;;;;;;5065276;28;20047;-49
2023/01/23 08:26:08;;;;;;;3.83;2.88;;;22.70;35.60;;;;;;5065630;28;20086;-47
2023/01/23 08:28:35;;;;;;;3.55;3.13;;;22.80;35.50;;;;;;5062648;28;20553;-48
2023/01/23 08:31:06;;;;;;;5.85;4.82;;;22.80;35.30;;;;;;5045594;28;20051;-46
2023/01/23 08:33:33;;;;;;;7.93;4.30;;;22.90;34.50;;;;;;5045712;28;20045;-47
2023/01/23 08:36:01;;;;;;;5.38;3.53;;;22.90;34.30;;;;;;5048419;28;20321;-45
2023/01/23 08:38:30;;;;;;;7.50;3.08;;;22.90;33.90;;;;;;5060886;28;20642;-49
2023/01/23 08:41:00;;;;;;;5.40;4.90;;;22.90;34.10;;;;;;5047144;28;20506;-43
2023/01/23 08:43:28;;;;;;;8.75;4.82;;;22.90;33.90;;;;;;5056210;28;20052;-51
2023/01/23 08:45:57;;;;;;;9.43;6.78;;;22.80;33.50;;;;;;5064246;28;20106;-49
2023/01/23 08:48:26;;;;;;;8.45;6.63;;;22.80;32.90;;;;;;5065096;28;20055;-51
2023/01/23 08:51:00;;;;;;;10.70;5.30;;;22.70;32.50;;;;;;5064199;28;20121;-53
2023/01/23 08:53:27;;;;;;;5.80;5.15;;;22.70;32.90;;;;;;5064134;28;20045;-51
2023/01/23 08:55:58;;;;;;;12.00;6.82;;;22.60;32.80;;;;;;5058879;28;20036;-54
2023/01/23 08:58:26;;;;;;;12.75;5.97;;;22.50;32.80;;;;;;5045802;28;20124;-53
2023/01/23 09:00:53;;;;;;;5.47;5.00;;;22.40;32.60;;;;;;5059785;28;20537;-54
2023/01/23 09:03:20;;;;;;;4.97;4.05;;;22.40;32.40;;;;;;5063797;28;20057;-50
2023/01/23 09:05:48;;;;;;;8.00;4.93;;;22.40;33.20;;;;;;5052094;28;20506;-48
2023/01/23 09:08:15;;;;;;;3.72;3.20;;;22.40;33.50;;;;;;5045026;28;20461;-52
2023/01/23 09:10:42;;;;;;;5.95;4.75;;;22.30;34.30;;;;;;5045173;28;20441;-52
2023/01/23 09:13:09;;;;;;;4.68;3.92;;;22.30;34.80;;;;;;5045072;28;20064;-52
2023/01/23 09:15:38;;;;;;;2.70;2.25;;;22.30;34.40;;;;;;5053597;28;20045;-51
2023/01/23 09:18:05;;;;;;;6.07;5.45;;;22.30;35.00;;;;;;5064741;28;20112;-53
2023/01/23 09:20:32;;;;;;;3.17;2.83;;;22.20;34.50;;;;;;5064501;28;20053;-52
2023/01/23 09:23:00;;;;;;;8.80;3.55;;;22.20;35.00;;;;;;5064730;28;20892;-51
2023/01/23 09:25:30;;;;;;;6.63;4.28;;;22.20;34.70;;;;;;5051977;28;20047;-48
2023/01/23 09:27:57;;;;;;;3.95;2.95;;;22.20;34.60;;;;;;5045570;28;20052;-50
2023/01/23 09:30:24;;;;;;;4.78;4.32;;;22.20;35.20;;;;;;5065483;28;20044;-47
2023/01/23 09:32:51;;;;;;;2.78;2.67;;;22.20;34.70;;;;;;5054439;28;20556;-47
2023/01/23 09:35:18;;;;;;;4.70;4.22;;;22.10;35.20;;;;;;5048223;28;20040;-51
2023/01/23 09:38:00;;;;;;;4.22;3.92;;;22.20;35.00;;;;;;5048505;28;20474;-48
2023/01/23 09:40:31;;;;;;;3.45;2.88;;;22.20;34.70;;;;;;5048370;28;20049;-50
2023/01/23 09:43:02;;;;;;;3.83;3.53;;;22.20;35.50;;;;;;5052129;28;20043;-47
2023/01/23 09:45:32;;;;;;;4.90;2.42;;;22.20;35.80;;;;;;5054922;28;20248;-49
2023/01/23 09:48:11;;;;;;;3.92;3.38;;;22.20;35.70;;;;;;5055980;28;20070;-50
2023/01/23 09:51:06;;;;;;;5.05;4.28;;;22.30;35.40;;;;;;5047792;28;20145;-46
2023/01/23 09:53:37;;;;;;;2.67;2.47;;;22.30;35.10;;;;;;5057305;28;20416;-53
2023/01/23 09:56:17;;;;;;;4.65;3.22;;;22.20;35.50;;;;;;5052473;28;20063;-49
2023/01/23 09:58:50;;;;;;;2.67;2.42;;;22.30;35.70;;;;;;5060444;28;20038;-50
2023/01/23 10:01:17;;;;;;;3.45;2.70;;;22.30;35.80;;;;;;5067777;28;20119;-49
2023/01/23 10:03:44;;;;;;;3.22;1.73;;;22.40;36.00;;;;;;5067731;28;20044;-45
2023/01/23 10:06:20;;;;;;;2.03;1.92;;;22.50;36.00;;;;;;5067878;28;20677;-50
2023/01/23 10:09:12;;;;;;;4.72;4.30;;;22.70;36.00;;;;;;5067736;28;20110;-51
2023/01/23 10:11:53;;;;;;;3.45;3.20;;;22.70;35.00;;;;;;5067962;28;20617;-52
2023/01/23 10:14:45;;;;;;;5.05;4.25;;;22.70;34.50;;;;;;5067983;28;20055;-48
2023/01/23 10:17:17;;;;;;;5.47;3.85;;;22.70;34.20;;;;;;5047346;28;20136;-48
2023/01/23 10:20:00;;;;;;;3.90;3.50;;;22.60;34.00;;;;;;5058761;28;20076;-51
2023/01/23 10:22:34;;;;;;;6.00;4.70;;;22.50;33.80;;;;;;5067739;28;20044;-52
2023/01/23 10:25:12;;;;;;;6.40;5.03;;;22.40;33.80;;;;;;5067307;28;20083;-51
2023/01/23 10:27:45;;;;;;;4.53;4.13;;;22.30;33.70;;;;;;5067163;28;20049;-50
2023/01/23 10:30:27;;;;;;;6.13;3.95;;;22.30;34.10;;;;;;5050963;28;20110;-44
2023/01/23 10:32:58;;;;;;;5.95;3.53;;;22.30;34.20;;;;;;5047080;28;20053;-52
2023/01/23 10:35:32;;;;;;;8.35;4.05;;;22.20;34.30;;;;;;5047425;28;20517;-45
2023/01/23 10:38:04;;;;;;;3.95;3.55;;;22.10;34.40;;;;;;5047268;28;20056;-47
2023/01/23 10:43:19;;;;;;;5.57;4.50;;;22.00;34.30;;;;;;5046966;28;20056;-53
2023/01/23 10:45:48;;;;;;;4.70;4.30;;;22.00;34.40;;;;;;5056763;28;20151;-47
2023/01/23 10:48:29;;;;;;;5.93;3.92;;;22.00;34.30;;;;;;5067158;28;20040;-46
2023/01/23 10:50:56;;;;;;;6.13;4.55;;;22.00;34.20;;;;;;5051851;28;20139;-46
2023/01/23 10:53:24;;;;;;;5.43;4.53;;;21.80;34.30;;;;;;5054137;28;20044;-46
2023/01/23 10:55:55;;;;;;;7.22;4.03;;;21.80;34.30;;;;;;5066576;28;20060;-47
2023/01/23 10:58:32;;;;;;;5.78;3.92;;;21.80;34.30;;;;;;5063023;28;20453;-49
2023/01/23 11:01:00;;;;;;;5.47;4.63;;;21.80;34.90;;;;;;5066558;28;20053;-46
2023/01/23 11:03:31;;;;;;;4.40;3.53;;;21.70;34.30;;;;;;5066893;28;20032;-49
2023/01/23 11:06:03;;;;;;;5.57;4.40;;;21.70;34.30;;;;;;5066720;28;20045;-47
2023/01/23 11:08:32;;;;;;;4.68;3.70;;;21.70;34.40;;;;;;5066444;28;20509;-47
2023/01/23 11:11:21;;;;;;;4.82;3.25;;;21.60;34.30;;;;;;5066701;28;20158;-48
2023/01/23 11:13:51;;;;;;;4.85;3.40;;;21.70;34.40;;;;;;5066586;28;20052;-46
2023/01/23 11:16:21;;;;;;;4.07;3.30;;;21.60;34.50;;;;;;5066269;28;20471;-48
2023/01/23 11:18:53;;;;;;;6.32;3.67;;;21.50;34.40;;;;;;5066549;28;20128;-47
2023/01/23 11:21:22;;;;;;;5.72;3.67;;;21.50;34.30;;;;;;5066258;28;20054;-49
2023/01/23 11:23:49;;;;;;;3.70;2.28;;;21.50;34.70;;;;;;5066083;28;20087;-49
2023/01/23 11:26:32;;;;;;;4.32;3.85;;;21.50;35.20;;;;;;5055333;28;20073;-45
2023/01/23 11:29:01;;;;;;;4.93;2.78;;;21.50;34.80;;;;;;5051531;28;20090;-46
2023/01/23 11:31:28;;;;;;;3.03;2.55;;;21.40;34.90;;;;;;5065958;28;20044;-47
2023/01/23 11:33:58;;;;;;;3.63;2.97;;;21.40;35.00;;;;;;5065980;28;20048;-50
2023/01/23 11:36:50;;;;;;;4.20;3.15;;;21.40;35.00;;;;;;5066429;28;20040;-51
2023/01/23 11:39:30;;;;;;;5.10;3.33;;;21.30;34.70;;;;;;5065939;28;20470;-46
2023/01/23 11:41:58;;;;;;;3.63;3.33;;;21.30;34.60;;;;;;5065403;28;20048;-46
2023/01/23 11:44:27;;;;;;;4.25;3.25;;;21.30;34.70;;;;;;5063292;28;20043;-46
2023/01/23 11:47:09;;;;;;;4.05;3.60;;;21.30;34.40;;;;;;5064064;28;20934;-47
2023/01/23 11:50:09;;;;;;;5.57;3.22;;;21.30;34.30;;;;;;5064498;28;20045;-48
2023/01/23 11:52:48;;;;;;;8.20;3.55;;;21.30;34.20;;;;;;5044595;28;20091;-47
2023/01/23 11:55:47;;;;;;;4.68;3.55;;;21.30;34.00;;;;;;5063602;28;20801;-46
2023/01/23 11:58:30;;;;;;;4.82;3.17;;;21.20;33.90;;;;;;5053424;28;20086;-46
2023/01/23 12:01:07;;;;;;;4.75;3.47;;;21.20;34.00;;;;;;5051592;28;20040;-49
2023/01/23 12:03:59;;;;;;;6.18;3.42;;;21.20;33.80;;;;;;5062686;28;20040;-50
2023/01/23 12:07:06;;;;;;;3.38;2.83;;;21.10;33.60;;;;;;5065460;28;20048;-45
2023/01/23 12:09:41;;;;;;;8.85;3.00;;;21.10;33.70;;;;;;5043421;28;20080;-48
2023/01/23 12:12:16;;;;;;;5.78;4.35;;;21.00;33.90;;;;;;5054499;28;20140;-46
2023/01/23 12:14:57;;;;;;;5.03;3.30;;;20.90;34.00;;;;;;5064920;28;20066;-45
2023/01/23 12:17:35;;;;;;;5.80;4.18;;;20.90;33.90;;;;;;5065090;28;20079;-47
2023/01/23 12:20:19;;;;;;;5.07;2.83;;;20.90;33.70;;;;;;5065648;28;20045;-45
2023/01/23 12:23:03;;;;;;;5.88;2.85;;;20.90;34.00;;;;;;5065178;28;20577;-49
2023/01/23 12:25:34;;;;;;;4.38;3.72;;;20.90;33.60;;;;;;5065376;28;20394;-46
2023/01/23 12:28:13;;;;;;;4.93;4.05;;;20.90;33.60;;;;;;5065081;28;20056;-45
2023/01/23 12:30:59;;;;;;;5.35;3.75;;;20.90;33.50;;;;;;5058831;28;20739;-51
2023/01/23 12:33:43;;;;;;;14.10;3.73;;;20.90;33.50;;;;;;5062069;28;20044;-52
2023/01/23 12:36:32;;;;;;;5.57;2.80;;;20.90;33.50;;;;;;5058906;28;20561;-48
2023/01/23 12:39:07;;;;;;;5.45;3.30;;;20.90;33.50;;;;;;5051295;28;20121;-49
2023/01/23 12:41:39;;;;;;;3.63;2.92;;;20.90;33.50;;;;;;5055170;28;20059;-49
2023/01/23 12:44:14;;;;;;;10.00;3.50;;;20.90;33.60;;;;;;5055222;28;20483;-55
2023/01/23 12:46:44;;;;;;;6.32;3.55;;;20.90;33.50;;;;;;5057159;28;20522;-50
2023/01/23 12:49:23;;;;;;;4.07;3.20;;;20.90;33.50;;;;;;5063320;28;20128;-47
2023/01/23 12:51:55;;;;;;;4.90;2.55;;;20.80;33.60;;;;;;5055784;28;20801;-46
2023/01/23 12:54:32;;;;;;;6.57;3.45;;;20.80;33.70;;;;;;5054995;28;20535;-47
2023/01/23 12:57:02;;;;;;;6.70;3.67;;;20.80;33.70;;;;;;5053502;28;20032;-49
2023/01/23 12:59:47;;;;;;;4.03;3.08;;;20.80;33.90;;;;;;5053899;28;20118;-45
2023/01/23 13:02:19;;;;;;;5.47;3.50;;;20.80;33.80;;;;;;5064992;28;20068;-49
2023/01/23 13:04:59;;;;;;;4.10;3.40;;;20.70;33.90;;;;;;5068980;28;20046;-45
2023/01/23 13:07:41;;;;;;;4.70;2.88;;;20.80;34.00;;;;;;5054074;28;20041;-47
2023/01/23 13:13:16;;;;;;;4.75;3.25;;;20.90;34.10;;;;;;5048166;28;20131;-47
2023/01/23 13:15:43;;;;;;;4.05;2.53;;;20.90;34.10;;;;;;5058445;28;20040;-47
2023/01/23 13:18:26;;;;;;;11.82;3.28;;;21.00;34.20;;;;;;5068898;28;20053;-50
2023/01/23 13:23:42;;;;;;;3.33;2.72;;;21.20;34.00;;;;;;5026331;28;20140;-49